createdAt,value
2018-12-31T00:00:02.370Z,102281.37
2018-12-31T00:01:11.236Z,102279.05
2018-12-31T00:02:12.756Z,102276.98
2018-12-31T00:03:14.191Z,102278.69
2018-12-31T00:04:15.671Z,102273.32
2018-12-31T00:05:17.005Z,102271.61
2018-12-31T00:06:20.226Z,102275.64
2018-12-31T00:07:21.454Z,102274.66
2018-12-31T00:08:25.220Z,102272.95
2018-12-31T00:09:26.454Z,102272.59
2018-12-31T00:10:27.588Z,102274.77
2018-12-31T00:11:31.060Z,102281.61
2018-12-31T00:12:32.302Z,102281.00
2018-12-31T00:13:34.765Z,102273.06
2018-12-31T00:14:38.525Z,102266.36
2018-12-31T00:15:41.996Z,102272.22
2018-12-31T00:16:43.985Z,102268.67
2018-12-31T00:17:46.307Z,102273.06
2018-12-31T00:18:48.877Z,102268.20
2018-12-31T00:19:51.572Z,102267.23
2018-12-31T00:20:55.002Z,102264.17
2018-12-31T00:21:57.341Z,102258.81
2018-12-31T00:22:58.864Z,102256.13
2018-12-31T00:23:59.980Z,102256.50
2018-12-31T00:25:01.107Z,102248.09
2018-12-31T00:26:04.280Z,102256.97
2018-12-31T00:27:06.636Z,102251.23
2018-12-31T00:28:09.669Z,102246.75
2018-12-31T00:29:10.927Z,102248.09
2018-12-31T00:30:12.458Z,102253.81
2018-12-31T00:31:14.685Z,102256.50
2018-12-31T00:32:15.915Z,102255.16
2018-12-31T00:33:17.179Z,102251.13
2018-12-31T00:34:18.410Z,102252.34
2018-12-31T00:35:19.969Z,102250.63
2018-12-31T00:36:21.215Z,102249.80
2018-12-31T00:37:25.747Z,102251.50
2018-12-31T00:38:26.876Z,102258.67
2018-12-31T00:39:36.980Z,102260.02
2018-12-31T00:40:39.227Z,102260.89
2018-12-31T00:41:40.756Z,102260.39
2018-12-31T00:42:43.051Z,102257.70
2018-12-31T00:43:46.083Z,102256.00
2018-12-31T00:44:47.316Z,102251.50
2018-12-31T00:45:48.552Z,102253.31
2018-12-31T00:46:49.797Z,102256.36
2018-12-31T00:47:51.042Z,102253.31
2018-12-31T00:48:52.170Z,102260.89
2018-12-31T00:49:53.416Z,102254.19
2018-12-31T00:50:54.551Z,102260.89
2018-12-31T00:51:55.716Z,102256.50
2018-12-31T00:52:58.676Z,102253.68
2018-12-31T00:53:59.893Z,102257.33
2018-12-31T00:55:04.017Z,102260.52
2018-12-31T00:56:05.240Z,102254.19
2018-12-31T00:57:06.789Z,102258.67
2018-12-31T00:58:09.377Z,102256.50
2018-12-31T00:59:10.612Z,102254.66
2018-12-31T01:00:11.841Z,102253.81
2018-12-31T01:01:15.109Z,102259.18
2018-12-31T01:02:16.627Z,102253.81
2018-12-31T01:03:17.843Z,102253.45
2018-12-31T01:04:18.963Z,102249.80
2018-12-31T01:05:20.197Z,102262.33
2018-12-31T01:06:23.127Z,102261.13
2018-12-31T01:07:24.652Z,102266.86
2018-12-31T01:08:27.765Z,102265.98
2018-12-31T01:09:30.786Z,102267.33
2018-12-31T01:10:32.026Z,102265.15
2018-12-31T01:11:33.465Z,102262.47
2018-12-31T01:12:36.503Z,102263.44
2018-12-31T01:13:37.752Z,102261.13
2018-12-31T01:14:38.981Z,102256.73
2018-12-31T01:15:40.206Z,102258.08
2018-12-31T01:16:41.662Z,102265.62
2018-12-31T01:17:43.185Z,102263.44
2018-12-31T01:18:44.316Z,102254.53
2018-12-31T01:19:45.732Z,102254.05
2018-12-31T01:20:46.984Z,102249.63
2018-12-31T01:21:51.587Z,102249.63
2018-12-31T01:22:53.249Z,102252.42
2018-12-31T01:23:55.665Z,102255.00
2018-12-31T01:24:57.106Z,102244.73
2018-12-31T01:25:58.400Z,102249.73
2018-12-31T01:26:59.646Z,102242.56
2018-12-31T01:28:00.887Z,102244.84
2018-12-31T01:29:03.306Z,102245.72
2018-12-31T01:30:05.855Z,102248.86
2018-12-31T01:31:08.085Z,102237.67
2018-12-31T01:32:09.322Z,102243.50
2018-12-31T01:33:21.065Z,102240.82
2018-12-31T01:34:24.101Z,102232.78
2018-12-31T01:35:25.328Z,102234.12
2018-12-31T01:36:26.563Z,102234.12
2018-12-31T01:37:27.794Z,102230.97
2018-12-31T01:38:29.288Z,102228.75
2018-12-31T01:39:32.718Z,102228.75
2018-12-31T01:40:34.027Z,102228.75
2018-12-31T01:41:35.249Z,102227.81
2018-12-31T01:42:37.921Z,102227.81
2018-12-31T01:43:42.199Z,102226.95
2018-12-31T01:44:43.320Z,102217.56
2018-12-31T01:45:44.542Z,102224.73
2018-12-31T01:46:45.782Z,102216.22
2018-12-31T01:47:47.005Z,102214.01
2018-12-31T01:48:49.811Z,102210.86
2018-12-31T01:49:51.054Z,102213.06
2018-12-31T01:50:52.277Z,102205.02
2018-12-31T01:51:54.406Z,102208.64
2018-12-31T01:52:55.626Z,102206.36
2018-12-31T01:53:56.851Z,102205.39
2018-12-31T01:54:59.319Z,102209.05
2018-12-31T01:56:00.762Z,102206.83
2018-12-31T01:57:02.047Z,102209.87
2018-12-31T01:58:03.447Z,102204.62
2018-12-31T01:59:06.594Z,102205.39
2018-12-31T02:00:10.673Z,102209.05
2018-12-31T02:01:12.226Z,102200.50
2018-12-31T02:02:13.462Z,102195.64
2018-12-31T02:03:14.685Z,102195.13
2018-12-31T02:04:16.031Z,102187.20
2018-12-31T02:05:18.467Z,102190.75
2018-12-31T02:06:19.701Z,102187.59
2018-12-31T02:07:20.926Z,102184.91
2018-12-31T02:08:23.983Z,102188.06
2018-12-31T02:09:25.225Z,102187.59
2018-12-31T02:10:27.245Z,102183.17
2018-12-31T02:11:28.483Z,102182.70
2018-12-31T02:12:31.894Z,102181.47
2018-12-31T02:13:34.223Z,102182.33
2018-12-31T02:14:35.477Z,102180.02
2018-12-31T02:15:38.909Z,102181.47
2018-12-31T02:16:40.130Z,102180.13
2018-12-31T02:17:41.354Z,102172.08
2018-12-31T02:18:42.482Z,102175.63
2018-12-31T02:19:45.987Z,102168.06
2018-12-31T02:20:47.216Z,102172.08
2018-12-31T02:21:48.347Z,102165.02
2018-12-31T02:22:49.571Z,102168.67
2018-12-31T02:23:52.351Z,102163.30
2018-12-31T02:24:53.583Z,102162.33
2018-12-31T02:25:54.818Z,102164.17
2018-12-31T02:26:58.084Z,102158.45
2018-12-31T02:27:59.534Z,102155.27
2018-12-31T02:29:05.477Z,102152.72
2018-12-31T02:30:11.372Z,102159.78
2018-12-31T02:31:12.603Z,102148.19
2018-12-31T02:32:16.488Z,102152.58
2018-12-31T02:33:17.617Z,102153.55
2018-12-31T02:34:18.842Z,102149.06
2018-12-31T02:35:20.086Z,102154.06
2018-12-31T02:36:21.327Z,102152.72
2018-12-31T02:37:22.454Z,102151.84
2018-12-31T02:38:23.668Z,102152.72
2018-12-31T02:39:25.196Z,102151.48
2018-12-31T02:40:28.580Z,102149.67
2018-12-31T02:41:29.801Z,102148.80
2018-12-31T02:42:31.023Z,102147.83
2018-12-31T02:43:32.463Z,102143.80
2018-12-31T02:44:33.736Z,102142.61
2018-12-31T02:45:34.997Z,102148.80
2018-12-31T02:46:36.834Z,102121.63
2018-12-31T02:47:38.068Z,102142.97
2018-12-31T02:48:39.290Z,102140.39
2018-12-31T02:49:42.323Z,102136.73
2018-12-31T02:50:43.498Z,102136.73
2018-12-31T02:51:46.548Z,102139.42
2018-12-31T02:52:49.610Z,102137.47
2018-12-31T02:53:54.858Z,102137.10
2018-12-31T02:54:59.025Z,102134.92
2018-12-31T02:56:00.262Z,102130.77
2018-12-31T02:57:01.391Z,102135.77
2018-12-31T02:58:05.432Z,102134.42
2018-12-31T02:59:06.896Z,102135.77
2018-12-31T03:00:08.121Z,102133.08
2018-12-31T03:01:11.909Z,102132.98
2018-12-31T03:02:15.134Z,102138.81
2018-12-31T03:03:17.359Z,102133.59
2018-12-31T03:04:18.593Z,102134.79
2018-12-31T03:05:23.388Z,102134.79
2018-12-31T03:06:28.234Z,102140.15
2018-12-31T03:07:29.472Z,102142.36
2018-12-31T03:08:31.225Z,102141.86
2018-12-31T03:09:32.460Z,102135.16
2018-12-31T03:10:35.068Z,102135.66
2018-12-31T03:11:37.548Z,102136.49
2018-12-31T03:12:39.905Z,102133.95
2018-12-31T03:13:41.227Z,102135.66
2018-12-31T03:14:46.235Z,102136.13
2018-12-31T03:15:48.652Z,102127.72
2018-12-31T03:16:51.168Z,102127.25
2018-12-31T03:17:56.666Z,102125.77
2018-12-31T03:18:59.324Z,102121.16
2018-12-31T03:20:00.669Z,102119.68
2018-12-31T03:21:06.806Z,102117.97
2018-12-31T03:22:07.941Z,102112.61
2018-12-31T03:23:09.082Z,102109.09
2018-12-31T03:24:10.320Z,102101.88
2018-12-31T03:25:11.548Z,102101.52
2018-12-31T03:26:15.311Z,102097.39
2018-12-31T03:27:19.614Z,102096.16
2018-12-31T03:28:23.641Z,102091.16
2018-12-31T03:29:24.896Z,102086.77
2018-12-31T03:30:26.349Z,102077.03
2018-12-31T03:31:27.602Z,102077.03
2018-12-31T03:32:28.819Z,102077.03
2018-12-31T03:33:30.043Z,102071.30
2018-12-31T03:34:32.980Z,102068.15
2018-12-31T03:35:34.408Z,102064.96
2018-12-31T03:36:35.631Z,102064.59
2018-12-31T03:37:36.870Z,102056.08
2018-12-31T03:38:39.347Z,102056.55
2018-12-31T03:39:40.585Z,102057.42
2018-12-31T03:40:43.507Z,102051.70
2018-12-31T03:41:44.740Z,102057.06
2018-12-31T03:42:46.450Z,102053.87
2018-12-31T03:43:51.082Z,102054.38
2018-12-31T03:44:53.792Z,102054.75
2018-12-31T03:45:55.021Z,102051.19
2018-12-31T03:46:57.943Z,102051.19
2018-12-31T03:47:59.175Z,102056.08
2018-12-31T03:49:02.247Z,102046.70
2018-12-31T03:50:06.617Z,102046.70
2018-12-31T03:51:09.599Z,102042.68
2018-12-31T03:52:12.031Z,102039.49
2018-12-31T03:53:15.498Z,102040.83
2018-12-31T03:54:16.927Z,102040.83
2018-12-31T03:55:24.250Z,102031.45
2018-12-31T03:56:26.612Z,102039.49
2018-12-31T03:57:28.049Z,102035.47
2018-12-31T03:58:29.477Z,102037.68
2018-12-31T03:59:34.314Z,102039.02
2018-12-31T04:00:39.735Z,102039.49
2018-12-31T04:01:42.759Z,102037.17
2018-12-31T04:02:47.003Z,102038.52
2018-12-31T04:03:48.538Z,102034.50
2018-12-31T04:04:53.037Z,102032.31
2018-12-31T04:05:54.177Z,102035.37
2018-12-31T04:06:55.292Z,102023.41
2018-12-31T04:07:56.523Z,102030.98
2018-12-31T04:08:58.042Z,102033.16
2018-12-31T04:09:59.552Z,102031.81
2018-12-31T04:11:01.126Z,102025.62
2018-12-31T04:12:06.253Z,102027.43
2018-12-31T04:13:07.505Z,102021.59
2018-12-31T04:14:08.757Z,102021.96
2018-12-31T04:15:11.220Z,102026.45
2018-12-31T04:16:12.351Z,102014.89
2018-12-31T04:17:13.583Z,102017.94
2018-12-31T04:18:18.415Z,102009.53
2018-12-31T04:19:19.837Z,102017.07
2018-12-31T04:20:20.992Z,102010.88
2018-12-31T04:21:23.583Z,102012.69
2018-12-31T04:22:26.405Z,102016.23
2018-12-31T04:23:28.723Z,102020.73
2018-12-31T04:24:30.191Z,102025.25
2018-12-31T04:25:32.669Z,102028.77
2018-12-31T04:26:34.272Z,102022.58
2018-12-31T04:27:36.532Z,102019.02
2018-12-31T04:28:39.792Z,102021.70
2018-12-31T04:29:41.133Z,102017.31
2018-12-31T04:30:42.580Z,102015.00
2018-12-31T04:31:44.177Z,102012.83
2018-12-31T04:32:45.303Z,102011.12
2018-12-31T04:33:48.319Z,102005.62
2018-12-31T04:34:49.568Z,102001.23
2018-12-31T04:35:52.022Z,101999.06
2018-12-31T04:36:57.039Z,101995.51
2018-12-31T04:37:58.264Z,101996.02
2018-12-31T04:39:00.298Z,101997.36
2018-12-31T04:40:01.539Z,101993.34
2018-12-31T04:41:04.667Z,101992.10
2018-12-31T04:42:06.535Z,101992.47
2018-12-31T04:43:08.993Z,101987.10
2018-12-31T04:44:12.029Z,101981.38
2018-12-31T04:45:13.365Z,101987.61
2018-12-31T04:46:15.795Z,101975.66
2018-12-31T04:47:17.011Z,101980.55
2018-12-31T04:48:18.151Z,101981.38
2018-12-31T04:49:21.180Z,101976.52
2018-12-31T04:50:22.715Z,101975.66
2018-12-31T04:51:31.326Z,101972.98
2018-12-31T04:52:33.785Z,101971.27
2018-12-31T04:53:34.951Z,101965.91
2018-12-31T04:54:37.344Z,101972.61
2018-12-31T04:55:44.489Z,101962.76
2018-12-31T04:56:46.146Z,101966.78
2018-12-31T04:57:47.401Z,101969.46
2018-12-31T04:58:48.617Z,101962.39
2018-12-31T04:59:53.357Z,101962.39
2018-12-31T05:00:56.820Z,101958.84
2018-12-31T05:01:58.063Z,101966.89
2018-12-31T05:02:59.308Z,101964.20
2018-12-31T05:04:00.536Z,101957.14
2018-12-31T05:05:09.505Z,101962.87
2018-12-31T05:06:10.738Z,101942.77
2018-12-31T05:07:11.855Z,101945.44
2018-12-31T05:08:13.292Z,101934.72
2018-12-31T05:09:15.553Z,101928.53
2018-12-31T05:10:20.329Z,101928.53
2018-12-31T05:11:21.576Z,101932.05
2018-12-31T05:12:22.999Z,101923.53
2018-12-31T05:13:28.042Z,101896.50
2018-12-31T05:14:31.310Z,101919.98
2018-12-31T05:15:32.530Z,101924.00
2018-12-31T05:16:34.826Z,101922.19
2018-12-31T05:17:36.100Z,101923.02
2018-12-31T05:18:38.868Z,101914.98
2018-12-31T05:19:41.965Z,101916.83
2018-12-31T05:20:46.233Z,101917.66
2018-12-31T05:21:47.691Z,101919.88
2018-12-31T05:22:49.183Z,101912.66
2018-12-31T05:23:50.452Z,101909.98
2018-12-31T05:24:51.677Z,101906.94
2018-12-31T05:25:56.882Z,101907.30
2018-12-31T05:27:00.036Z,101901.58
2018-12-31T05:28:01.161Z,101902.45
2018-12-31T05:29:02.381Z,101901.58
2018-12-31T05:30:04.016Z,101898.78
2018-12-31T05:31:08.364Z,101910.34
2018-12-31T05:32:09.724Z,101898.90
2018-12-31T05:33:15.477Z,101900.60
2018-12-31T05:34:16.691Z,101896.11
2018-12-31T05:35:17.920Z,101892.20
2018-12-31T05:36:19.265Z,101888.17
2018-12-31T05:37:20.509Z,101886.83
2018-12-31T05:38:21.734Z,101886.36
2018-12-31T05:39:23.211Z,101882.81
2018-12-31T05:40:26.253Z,101879.77
2018-12-31T05:41:27.482Z,101876.11
2018-12-31T05:42:28.641Z,101875.28
2018-12-31T05:43:29.862Z,101870.39
2018-12-31T05:44:31.119Z,101868.58
2018-12-31T05:45:34.118Z,101859.67
2018-12-31T05:46:35.333Z,101865.53
2018-12-31T05:47:38.473Z,101858.47
2018-12-31T05:48:39.774Z,101856.98
2018-12-31T05:49:40.998Z,101848.95
2018-12-31T05:50:42.242Z,101852.97
2018-12-31T05:51:44.275Z,101847.25
2018-12-31T05:52:45.817Z,101840.55
2018-12-31T05:53:47.055Z,101841.41
2018-12-31T05:54:49.311Z,101843.23
2018-12-31T05:55:50.536Z,101842.39
2018-12-31T05:56:51.753Z,101830.80
2018-12-31T05:57:53.104Z,101838.84
2018-12-31T05:58:56.641Z,101831.16
2018-12-31T05:59:59.362Z,101833.84
2018-12-31T06:01:00.643Z,101828.12
2018-12-31T06:02:01.970Z,101830.80
2018-12-31T06:03:03.210Z,101827.29
2018-12-31T06:04:12.149Z,101824.97
2018-12-31T06:05:13.375Z,101824.97
2018-12-31T06:06:14.604Z,101817.91
2018-12-31T06:07:16.748Z,101816.06
2018-12-31T06:08:17.887Z,101815.23
2018-12-31T06:09:22.187Z,101811.20
2018-12-31T06:10:23.409Z,101810.84
2018-12-31T06:11:24.641Z,101813.02
2018-12-31T06:12:27.679Z,101804.98
2018-12-31T06:13:29.043Z,101817.05
2018-12-31T06:14:30.274Z,101805.34
2018-12-31T06:15:32.918Z,101813.38
2018-12-31T06:16:36.894Z,101817.41
2018-12-31T06:17:48.304Z,101820.95
2018-12-31T06:18:49.739Z,101821.31
2018-12-31T06:19:51.023Z,101818.98
2018-12-31T06:20:54.056Z,101819.47
2018-12-31T06:21:55.277Z,101820.80
2018-12-31T06:22:56.527Z,101812.77
2018-12-31T06:24:00.554Z,101818.48
2018-12-31T06:25:03.197Z,101817.03
2018-12-31T06:26:06.238Z,101813.84
2018-12-31T06:27:07.658Z,101813.02
2018-12-31T06:28:10.718Z,101808.48
2018-12-31T06:29:11.959Z,101801.42
2018-12-31T06:30:13.194Z,101798.73
2018-12-31T06:31:14.519Z,101802.29
2018-12-31T06:32:18.920Z,101793.74
2018-12-31T06:33:20.065Z,101800.44
2018-12-31T06:34:22.847Z,101798.63
2018-12-31T06:35:25.601Z,101798.12
2018-12-31T06:36:27.042Z,101791.06
2018-12-31T06:37:32.132Z,101791.42
2018-12-31T06:38:33.354Z,101791.06
2018-12-31T06:39:34.494Z,101798.48
2018-12-31T06:40:35.618Z,101791.92
2018-12-31T06:41:36.860Z,101779.51
2018-12-31T06:42:38.522Z,101787.04
2018-12-31T06:43:44.363Z,101792.91
2018-12-31T06:44:45.885Z,101782.19
2018-12-31T06:45:47.107Z,101779.98
2018-12-31T06:46:48.339Z,101779.00
2018-12-31T06:47:50.312Z,101779.98
2018-12-31T06:48:51.542Z,101771.94
2018-12-31T06:49:52.680Z,101776.31
2018-12-31T06:50:57.189Z,101774.62
2018-12-31T06:51:58.405Z,101781.32
2018-12-31T06:53:02.966Z,101779.14
2018-12-31T06:54:08.377Z,101779.98
2018-12-31T06:55:10.447Z,101767.09
2018-12-31T06:56:13.059Z,101767.56
2018-12-31T06:57:15.542Z,101763.54
2018-12-31T06:58:19.613Z,101758.17
2018-12-31T07:00:44.071Z,101762.70
2018-12-31T07:01:45.403Z,101759.05
2018-12-31T07:02:46.677Z,101755.02
2018-12-31T07:03:49.223Z,101750.49
2018-12-31T07:04:54.447Z,101752.81
2018-12-31T07:05:55.602Z,101744.05
2018-12-31T07:06:58.849Z,101739.56
2018-12-31T07:08:00.090Z,101737.71
2018-12-31T07:09:02.289Z,101734.67
2018-12-31T07:10:07.282Z,101731.99
2018-12-31T07:11:08.526Z,101734.67
2018-12-31T07:12:10.219Z,101731.99
2018-12-31T07:13:12.618Z,101711.44
2018-12-31T07:14:15.644Z,101719.10
2018-12-31T07:15:20.495Z,101713.23
2018-12-31T07:16:22.014Z,101707.04
2018-12-31T07:17:24.454Z,101696.32
2018-12-31T07:18:27.846Z,101707.04
2018-12-31T07:19:30.003Z,101693.64
2018-12-31T07:20:35.103Z,101694.11
2018-12-31T07:21:36.848Z,101694.98
2018-12-31T07:24:00.154Z,101687.77
2018-12-31T07:25:03.082Z,101683.28
2018-12-31T07:26:09.096Z,101680.59
2018-12-31T07:27:10.436Z,101674.88
2018-12-31T07:28:11.662Z,101668.53
2018-12-31T07:29:12.792Z,101665.85
2018-12-31T07:30:26.996Z,101664.98
2018-12-31T07:31:28.267Z,101664.98
2018-12-31T07:32:29.520Z,101664.88
2018-12-31T07:33:33.008Z,101665.70
2018-12-31T07:34:34.628Z,101670.23
2018-12-31T07:35:36.047Z,101659.00
2018-12-31T07:36:38.497Z,101653.64
2018-12-31T07:37:39.705Z,101656.06
2018-12-31T07:38:40.812Z,101651.77
2018-12-31T07:39:41.931Z,101656.86
2018-12-31T07:40:43.046Z,101640.03
2018-12-31T07:41:44.164Z,101642.45
2018-12-31T07:42:45.385Z,101640.40
2018-12-31T07:43:46.488Z,101634.77
2018-12-31T07:44:47.604Z,101626.09
2018-12-31T07:45:48.708Z,101623.63
2018-12-31T07:46:49.819Z,101617.27
2018-12-31T07:47:50.991Z,101613.48
2018-12-31T07:48:52.229Z,101612.15
2018-12-31T07:49:53.337Z,101606.78
2018-12-31T07:50:54.539Z,101598.11
2018-12-31T07:51:55.745Z,101603.48
2018-12-31T07:52:56.879Z,101599.45
2018-12-31T07:53:57.995Z,101587.03
2018-12-31T07:54:59.202Z,101586.16
2018-12-31T07:56:00.309Z,101592.39
2018-12-31T07:57:01.415Z,101583.99
2018-12-31T07:58:02.835Z,101575.59
2018-12-31T07:59:04.042Z,101579.26
2018-12-31T08:00:06.853Z,101577.92
2018-12-31T08:01:07.962Z,101567.82
2018-12-31T08:02:09.171Z,101574.17
2018-12-31T08:03:10.305Z,101572.12
2018-12-31T08:04:11.512Z,101567.23
2018-12-31T08:05:12.621Z,101569.91
2018-12-31T08:06:13.729Z,101564.70
2018-12-31T08:07:14.853Z,101564.34
2018-12-31T08:08:16.153Z,101560.80
2018-12-31T08:09:17.360Z,101559.97
2018-12-31T08:10:18.569Z,101555.59
2018-12-31T08:11:19.676Z,101560.09
2018-12-31T08:12:20.784Z,101553.86
2018-12-31T08:13:21.906Z,101560.20
2018-12-31T08:14:23.023Z,101556.19
2018-12-31T08:15:24.133Z,101556.19
2018-12-31T08:16:25.234Z,101550.44
2018-12-31T08:17:26.421Z,101548.73
2018-12-31T08:18:27.668Z,101549.61
2018-12-31T08:19:28.775Z,101544.36
2018-12-31T08:20:29.885Z,101545.70
2018-12-31T08:21:30.987Z,101545.34
2018-12-31T08:22:32.095Z,101543.02
2018-12-31T08:23:33.216Z,101544.36
2018-12-31T08:24:34.440Z,101537.30
2018-12-31T08:25:35.550Z,101527.92
2018-12-31T08:26:36.656Z,101525.75
2018-12-31T08:27:37.873Z,101526.23
2018-12-31T08:28:38.996Z,101520.74
2018-12-31T08:29:40.105Z,101511.13
2018-12-31T08:30:41.225Z,101495.16
2018-12-31T08:31:42.340Z,101516.84
2018-12-31T08:32:43.483Z,101512.47
2018-12-31T08:33:44.728Z,101502.61
2018-12-31T08:34:45.839Z,101504.42
2018-12-31T08:35:47.048Z,101502.61
2018-12-31T08:36:48.161Z,101503.44
2018-12-31T08:37:49.368Z,101495.91
2018-12-31T08:38:50.608Z,101497.60
2018-12-31T08:39:51.714Z,101488.70
2018-12-31T08:40:52.825Z,101494.41
2018-12-31T08:41:54.033Z,101488.34
2018-12-31T08:42:55.583Z,101486.38
2018-12-31T08:43:57.068Z,101490.39
2018-12-31T08:44:58.178Z,101474.81
2018-12-31T08:45:59.282Z,101473.32
2018-12-31T08:47:00.392Z,101471.15
2018-12-31T08:48:01.669Z,101467.48
2018-12-31T08:49:02.824Z,101452.74
2018-12-31T08:50:05.229Z,101455.27
2018-12-31T08:51:06.352Z,101441.51
2018-12-31T08:52:07.559Z,101442.84
2018-12-31T08:53:08.670Z,101447.10
2018-12-31T08:54:09.890Z,101443.95
2018-12-31T08:55:10.996Z,101435.03
2018-12-31T08:56:12.106Z,101426.52
2018-12-31T08:57:13.317Z,101430.06
2018-12-31T08:58:14.527Z,101422.50
2018-12-31T08:59:15.931Z,101422.38
2018-12-31T09:00:17.040Z,101415.67
2018-12-31T09:01:18.250Z,101416.02
2018-12-31T09:02:19.460Z,101416.18
2018-12-31T09:03:20.564Z,101404.95
2018-12-31T09:04:21.688Z,101403.61
2018-12-31T09:05:22.917Z,101395.56
2018-12-31T09:06:24.027Z,101384.72
2018-12-31T09:07:25.142Z,101381.33
2018-12-31T09:08:26.256Z,101373.64
2018-12-31T09:09:27.590Z,101374.62
2018-12-31T09:10:28.708Z,101371.09
2018-12-31T09:11:29.814Z,101364.73
2018-12-31T09:12:31.024Z,101363.91
2018-12-31T09:13:32.139Z,101359.37
2018-12-31T09:14:33.540Z,101349.16
2018-12-31T09:15:34.648Z,101338.44
2018-12-31T09:16:35.756Z,101346.48
2018-12-31T09:17:36.871Z,101336.11
2018-12-31T09:18:37.975Z,101333.08
2018-12-31T09:19:39.126Z,101329.41
2018-12-31T09:20:40.232Z,101317.82
2018-12-31T09:21:41.350Z,101311.98
2018-12-31T09:22:42.463Z,101309.78
2018-12-31T09:23:43.601Z,101309.78
2018-12-31T09:24:44.921Z,101309.14
2018-12-31T09:25:46.132Z,101298.92
2018-12-31T09:26:47.242Z,101303.94
2018-12-31T09:27:48.358Z,101291.72
2018-12-31T09:28:49.472Z,101283.83
2018-12-31T09:29:50.622Z,101282.84
2018-12-31T09:30:51.740Z,101282.84
2018-12-31T09:31:52.862Z,101284.19
2018-12-31T09:32:54.069Z,101266.76
2018-12-31T09:33:55.180Z,101265.42
2018-12-31T09:34:56.417Z,101260.06
2018-12-31T09:35:57.524Z,101252.36
2018-12-31T09:36:58.635Z,101247.00
2018-12-31T09:37:59.750Z,101247.83
2018-12-31T09:39:00.866Z,101244.16
2018-12-31T09:40:02.271Z,101250.86
2018-12-31T09:41:03.485Z,101234.78
2018-12-31T09:42:04.592Z,101238.32
2018-12-31T09:43:05.703Z,101227.08
2018-12-31T09:44:06.810Z,101227.08
2018-12-31T09:45:08.111Z,101221.72
2018-12-31T09:46:09.216Z,101224.28
2018-12-31T09:47:10.345Z,101231.97
2018-12-31T09:48:11.468Z,101223.28
2018-12-31T09:49:12.582Z,101223.77
2018-12-31T09:50:13.806Z,101221.44
2018-12-31T09:51:14.909Z,101210.70
2018-12-31T09:52:16.127Z,101203.53
2018-12-31T09:53:17.240Z,101196.83
2018-12-31T09:54:18.353Z,101197.66
2018-12-31T09:55:19.578Z,101189.61
2018-12-31T09:56:20.693Z,101187.79
2018-12-31T09:57:21.901Z,101181.09
2018-12-31T09:58:23.009Z,101180.09
2018-12-31T09:59:24.249Z,101171.55
2018-12-31T10:00:25.373Z,101168.38
2018-12-31T10:01:26.587Z,101154.46
2018-12-31T10:02:27.848Z,101156.16
2018-12-31T10:03:29.775Z,101151.66
2018-12-31T10:04:30.991Z,101140.92
2018-12-31T10:05:32.234Z,101144.30
2018-12-31T10:06:33.474Z,101135.56
2018-12-31T10:07:34.602Z,101123.84
2018-12-31T10:08:35.717Z,101137.60
2018-12-31T10:09:36.856Z,101125.19
2018-12-31T10:10:38.355Z,101120.81
2018-12-31T10:11:39.467Z,101110.92
2018-12-31T10:12:40.589Z,101104.56
2018-12-31T10:13:43.310Z,101102.39
2018-12-31T10:14:44.672Z,101102.69
2018-12-31T10:15:46.347Z,101104.03
2018-12-31T10:16:47.561Z,101101.83
2018-12-31T10:17:48.786Z,101094.48
2018-12-31T10:18:49.929Z,101086.61
2018-12-31T10:19:51.168Z,101084.75
2018-12-31T10:20:52.771Z,101088.30
2018-12-31T10:21:53.991Z,101082.23
2018-12-31T10:22:57.240Z,101076.70
2018-12-31T10:23:58.469Z,101076.36
2018-12-31T10:24:59.683Z,101062.12
2018-12-31T10:26:03.459Z,101062.12
2018-12-31T10:27:04.646Z,101056.42
2018-12-31T10:28:06.008Z,101045.70
2018-12-31T10:29:07.433Z,101036.79
2018-12-31T10:30:08.645Z,101023.91
2018-12-31T10:31:09.777Z,101024.38
2018-12-31T10:32:10.888Z,101019.87
2018-12-31T10:33:11.998Z,101023.04
2018-12-31T10:34:13.215Z,101018.19
2018-12-31T10:35:14.320Z,101022.69
2018-12-31T10:36:15.443Z,101022.21
2018-12-31T10:37:16.556Z,101015.16
2018-12-31T10:38:17.780Z,101012.48
2018-12-31T10:39:19.008Z,101005.91
2018-12-31T10:40:20.109Z,101001.41
2018-12-31T10:41:21.352Z,100997.73
2018-12-31T10:42:22.464Z,100989.34
2018-12-31T10:43:23.679Z,100980.45
2018-12-31T10:44:24.782Z,100975.94
2018-12-31T10:45:25.892Z,100973.27
2018-12-31T10:46:27.133Z,100965.22
2018-12-31T10:47:28.348Z,100962.37
2018-12-31T10:48:29.564Z,100949.97
2018-12-31T10:49:30.777Z,100952.51
2018-12-31T10:50:31.909Z,100948.48
2018-12-31T10:51:33.149Z,100933.23
2018-12-31T10:52:34.258Z,100908.30
2018-12-31T10:53:35.370Z,100926.05
2018-12-31T10:54:36.480Z,100911.13
2018-12-31T10:55:37.597Z,100899.92
2018-12-31T10:56:38.832Z,100902.95
2018-12-31T10:57:40.053Z,100894.91
2018-12-31T10:58:41.160Z,100897.08
2018-12-31T10:59:42.271Z,100885.87
2018-12-31T11:00:43.503Z,100887.05
2018-12-31T11:01:44.745Z,100881.68
2018-12-31T11:02:45.868Z,100872.81
2018-12-31T11:03:46.981Z,100861.09
2018-12-31T11:04:48.095Z,100866.94
2018-12-31T11:05:49.228Z,100864.59
2018-12-31T11:06:50.569Z,100864.25
2018-12-31T11:07:51.680Z,100871.81
2018-12-31T11:08:52.790Z,100869.12
2018-12-31T11:09:53.901Z,100873.16
2018-12-31T11:10:55.118Z,100869.61
2018-12-31T11:11:56.449Z,100860.75
2018-12-31T11:12:57.657Z,100858.06
2018-12-31T11:13:58.768Z,100862.08
2018-12-31T11:14:59.878Z,100863.91
2018-12-31T11:16:00.989Z,100853.19
2018-12-31T11:17:02.331Z,100846.99
2018-12-31T11:18:05.303Z,100844.66
2018-12-31T11:19:06.482Z,100835.41
2018-12-31T11:20:07.686Z,100831.73
2018-12-31T11:21:08.800Z,100815.31
2018-12-31T11:22:10.017Z,100816.51
2018-12-31T11:23:11.125Z,100805.92
2018-12-31T11:24:12.788Z,100792.52
2018-12-31T11:25:14.068Z,100791.69
2018-12-31T11:26:15.190Z,100789.49
2018-12-31T11:27:16.497Z,100784.13
2018-12-31T11:28:17.714Z,100786.33
2018-12-31T11:29:18.839Z,100781.97
2018-12-31T11:30:20.080Z,100777.44
2018-12-31T11:31:21.300Z,100774.27
2018-12-31T11:32:22.639Z,100768.56
2018-12-31T11:33:23.852Z,100764.54
2018-12-31T11:34:25.073Z,100761.86
2018-12-31T11:35:26.282Z,100756.50
2018-12-31T11:36:27.397Z,100752.96
2018-12-31T11:37:34.661Z,100747.12
2018-12-31T11:38:31.740Z,100749.80
2018-12-31T11:39:32.972Z,100741.89
2018-12-31T11:40:34.182Z,100744.92
2018-12-31T11:41:35.392Z,100741.89
2018-12-31T11:42:36.685Z,100751.62
2018-12-31T11:43:37.939Z,100745.78
2018-12-31T11:44:39.049Z,100742.23
2018-12-31T11:45:40.255Z,100740.08
2018-12-31T11:46:41.366Z,100738.73
2018-12-31T11:47:42.492Z,100733.85
2018-12-31T11:48:43.895Z,100730.34